Página principal
METAR-TAF:

METAR-TAF

Aeroportos :

Koror, Babeldaob, Palau

latitude: 07-22N, longitude: 134-32E, altura: 54 m

Observação actual do tempo

O boletim foi feito há 27 minutos, às 18:50 UTC
Vento 4 kt de nordeste
Temperatura 27°C
Humidade 89%
Pressão 1007 hPa
Visibilidade: 19.3 km
Nuvens fragmentadasa uma altura de 1500 ft, Cumulonimbus.
Nuvens fragmentadasa uma altura de 29000 ft

METAR: PTRO 011850Z 05004KT 12SM BKN015CB BKN290 27/25 A2975 RMK CB N AND E

Hora: 04:17 (19:17 UTC)

Previsão

O boletim foi feito há 1 hora e 57 minutos, às 17:20 UTC
Previsão válida de 01 às 18 UTC a 02 às 18 UTC
Vento 7 kt de es-nordeste
Visibilidade: 10 km
Nuvens dispersasa uma altura de 1500 ft
Nuvens dispersasa uma altura de 11000 ft
aguaceiros nas vizinhanças,

TAF: PTRO 011720Z 0118/0218 06007KT P6SM VCSH SCT015 SCT110

Observações e previsões do tempo de mais de 4000 aeroportos (mensagens METAR e TAF).

As estações disponíveis são os pontos amarelos e vermelhos sobre o mapa.

Mova o rato sobre o mapa para ver o nome da estação.

Depois clique no ponto para visualizar as observações e previsões meteorológicas.

Para alterar o mapa : clique nos botões verdes com uma cruz preta para aumentar o zoom; no botão verde com uma pitada de zoom; ou nas setas verdes para mapas adjacentes.


METAR-TAF: